Time;durP1;ratioP1;P1;durP2;ratioP2;P2;SDS_P1;SDS_P2;PMS_P1;PMS_P2;Temp;Humidity;BMP_temperature;BMP_pressure;BME280_temperature;BME280_humidity;BME280_pressure;Samples;Min_cycle;Max_cycle;Signal;HPM_P1;HPM_P2
2022/11/05 00:11:16;;;;;;;15.33;11.80;;;;;;;11.48;100.00;97809.09;5189862;22;21095;-91
2022/11/05 00:18:01;;;;;;;13.83;11.53;;;;;;;11.52;100.00;97802.69;5191329;22;20613;-92
2022/11/05 00:20:05;;;;;;;15.23;10.73;;;;;;;11.53;100.00;97814.78;5216836;22;20579;-92
2022/11/05 00:26:56;;;;;;;15.03;11.20;;;;;;;11.53;100.00;97820.88;5185604;22;20969;-91
2022/11/05 00:28:59;;;;;;;13.90;11.97;;;;;;;11.53;100.00;97825.22;5190109;22;20602;-92
2022/11/05 00:31:04;;;;;;;15.97;12.37;;;;;;;11.53;100.00;97826.09;5190206;22;20889;-91
2022/11/05 00:33:07;;;;;;;14.63;11.70;;;;;;;11.54;100.00;97829.53;5215554;22;20685;-92
2022/11/05 00:35:11;;;;;;;13.13;11.73;;;;;;;11.54;100.00;97829.53;5189450;22;20607;-93
2022/11/05 00:37:14;;;;;;;14.23;11.97;;;;;;;11.54;100.00;97826.91;5189785;22;20583;-92
2022/11/05 00:39:17;;;;;;;15.60;12.40;;;;;;;11.53;99.63;97825.22;5215642;22;20666;-92
2022/11/05 00:41:22;;;;;;;13.67;10.93;;;;;;;11.49;99.65;97832.47;5189904;22;20694;-92
2022/11/05 00:45:46;;;;;;;11.57;9.60;;;;;;;11.51;100.00;97834.97;5216349;22;20566;-92
2022/11/05 00:50:09;;;;;;;11.70;10.07;;;;;;;11.54;100.00;97843.41;5191255;22;20568;-92
2022/11/05 00:54:38;;;;;;;14.50;9.50;;;;;;;11.56;100.00;97843.28;5177744;22;20626;-92
2022/11/05 00:56:43;;;;;;;12.23;9.90;;;;;;;11.58;100.00;97852.69;5215833;22;20605;-92
2022/11/05 00:58:46;;;;;;;11.57;9.47;;;;;;;11.59;100.00;97854.34;5190154;22;21177;-92
2022/11/05 01:00:50;;;;;;;11.17;9.37;;;;;;;11.62;100.00;97853.28;5216054;22;20674;-92
2022/11/05 01:02:57;;;;;;;14.07;10.30;;;;;;;11.62;100.00;97854.13;5216604;22;20640;-92
2022/11/05 01:05:00;;;;;;;12.17;9.27;;;;;;;11.63;99.43;97857.56;5189529;22;20614;-92
2022/11/05 01:07:03;;;;;;;11.90;9.00;;;;;;;11.65;100.00;97863.47;5190152;22;20665;-92
2022/11/05 01:09:06;;;;;;;10.43;9.30;;;;;;;11.65;100.00;97868.72;5189269;22;21187;-92
2022/11/05 01:11:11;;;;;;;10.87;8.83;;;;;;;11.64;100.00;97870.50;5216288;22;20583;-92
2022/11/05 01:13:17;;;;;;;10.50;9.40;;;;;;;11.65;99.43;97868.72;5217410;22;20946;-92
2022/11/05 01:15:21;;;;;;;13.77;9.43;;;;;;;11.67;100.00;97877.28;5190078;22;20665;-93
2022/11/05 01:17:24;;;;;;;9.73;8.37;;;;;;;11.65;99.68;97872.16;5191281;22;20582;-92
2022/11/05 01:19:28;;;;;;;9.27;8.10;;;;;;;11.65;100.00;97866.94;5217274;22;20599;-93
2022/11/05 01:21:34;;;;;;;9.20;8.30;;;;;;;11.68;100.00;97866.72;5191357;22;20972;-92
2022/11/05 01:23:37;;;;;;;9.43;8.13;;;;;;;11.69;100.00;97870.97;5190301;22;20579;-92
2022/11/05 01:25:40;;;;;;;10.40;7.90;;;;;;;11.70;100.00;97877.00;5189842;22;20666;-92
2022/11/05 01:27:43;;;;;;;8.97;7.73;;;;;;;11.71;100.00;97878.69;5243662;22;20601;-92
2022/11/05 01:29:47;;;;;;;8.70;7.70;;;;;;;11.72;99.38;97875.13;5192235;22;20586;-92
2022/11/05 01:31:50;;;;;;;8.93;7.37;;;;;;;11.70;99.98;97877.88;5191282;22;20679;-93
2022/11/05 01:33:53;;;;;;;8.80;7.80;;;;;;;11.70;100.00;97877.88;5191658;22;20603;-92
2022/11/05 01:35:56;;;;;;;9.70;7.30;;;;;;;11.72;100.00;97886.41;5190997;22;20690;-92
2022/11/05 01:37:59;;;;;;;7.93;6.57;;;;;;;11.72;100.00;97881.19;5191952;22;20603;-92
2022/11/05 01:40:04;;;;;;;7.60;6.77;;;;;;;11.74;100.00;97883.69;5188095;22;21276;-92
2022/11/05 01:42:13;;;;;;;7.70;6.50;;;;;;;11.73;100.00;97882.00;5216751;22;20586;-92
2022/11/05 01:44:54;;;;;;;10.30;6.70;;;;;;;11.73;100.00;97887.22;5216987;22;20842;-92
2022/11/05 01:46:57;;;;;;;7.73;6.03;;;;;;;11.71;100.00;97882.13;5217069;22;20602;-92
2022/11/05 01:49:06;;;;;;;7.50;6.27;;;;;;;11.73;99.54;97890.69;5218645;22;20562;-92
2022/11/05 01:51:12;;;;;;;6.33;5.43;;;;;;;11.73;99.90;97889.84;5193953;22;20610;-92
2022/11/05 01:53:20;;;;;;;8.17;6.20;;;;;;;11.73;99.80;97893.31;5194407;22;21185;-93
2022/11/05 01:55:26;;;;;;;9.37;5.90;;;;;;;11.74;100.00;97905.41;5217729;22;21501;-92
2022/11/05 01:57:29;;;;;;;9.83;6.60;;;;;;;11.74;99.23;97888.91;5219110;22;20624;-92
2022/11/05 01:59:35;;;;;;;6.10;5.50;;;;;;;11.75;99.20;97890.59;5193338;22;20603;-92
2022/11/05 02:01:39;;;;;;;6.80;6.10;;;;;;;11.73;99.68;97892.47;5218175;22;20586;-92
2022/11/05 02:03:43;;;;;;;8.20;6.10;;;;;;;11.74;100.00;97894.94;5221384;22;20594;-92
2022/11/05 02:05:47;;;;;;;7.13;5.67;;;;;;;11.74;100.00;97904.59;5219323;22;20613;-92
2022/11/05 02:07:51;;;;;;;6.33;5.43;;;;;;;11.73;100.00;97901.16;5219410;22;20640;-92
2022/11/05 02:09:57;;;;;;;7.93;5.57;;;;;;;11.73;100.00;97905.53;5193730;22;20598;-92
2022/11/05 02:12:00;;;;;;;6.50;5.63;;;;;;;11.73;99.28;97908.13;5218171;22;20670;-92
2022/11/05 02:14:03;;;;;;;7.53;5.10;;;;;;;11.73;100.00;97908.13;5193951;22;20571;-92
2022/11/05 02:16:13;;;;;;;6.40;5.73;;;;;;;11.73;100.00;97901.16;5192275;22;20618;-92
2022/11/05 02:18:24;;;;;;;8.40;5.13;;;;;;;11.73;99.87;97908.13;5219127;22;20570;-93
2022/11/05 02:20:36;;;;;;;8.20;5.83;;;;;;;11.74;100.00;97904.59;5192714;22;20780;-93
2022/11/05 02:23:14;;;;;;;6.17;5.33;;;;;;;11.72;100.00;97912.53;5192623;22;20589;-92
2022/11/05 02:25:35;;;;;;;8.60;5.30;;;;;;;11.72;99.98;97914.31;5199913;22;20658;-91
2022/11/05 02:27:59;;;;;;;7.20;5.57;;;;;;;11.71;99.71;97915.25;5193585;22;21122;-92
2022/11/05 02:30:08;;;;;;;7.90;6.10;;;;;;;11.71;99.18;97916.09;5218301;22;20583;-92
2022/11/05 02:32:18;;;;;;;6.73;5.10;;;;;;;11.70;98.87;97908.38;5194168;22;20590;-93
2022/11/05 02:34:27;;;;;;;7.30;5.40;;;;;;;11.69;100.00;97920.59;5193626;22;20602;-92
2022/11/05 02:36:40;;;;;;;6.17;5.57;;;;;;;11.69;98.52;97922.41;5191728;22;20666;-92
2022/11/05 02:38:48;;;;;;;7.00;5.83;;;;;;;11.70;99.37;97919.66;5193905;22;21138;-92
2022/11/05 02:40:58;;;;;;;6.30;5.60;;;;;;;11.69;98.73;97923.22;5217707;22;21268;-91
2022/11/05 02:43:05;;;;;;;10.60;5.30;;;;;;;11.68;100.00;97918.09;5192325;22;21018;-92
2022/11/05 02:45:16;;;;;;;7.53;6.00;;;;;;;11.68;100.00;97931.16;5193515;22;20603;-92
2022/11/05 02:47:24;;;;;;;8.13;6.40;;;;;;;11.66;100.00;97928.66;5193904;22;21306;-92
2022/11/05 02:49:35;;;;;;;7.80;6.03;;;;;;;11.66;99.64;97938.31;5219193;22;21171;-92
2022/11/05 02:51:42;;;;;;;6.57;5.70;;;;;;;11.66;99.90;97936.50;5194849;22;20589;-92
2022/11/05 02:53:47;;;;;;;6.33;5.63;;;;;;;11.66;99.83;97935.69;5193707;22;20574;-91
2022/11/05 02:55:54;;;;;;;6.57;5.50;;;;;;;11.67;99.05;97939.97;5193426;22;21017;-92
2022/11/05 02:57:58;;;;;;;9.23;5.80;;;;;;;11.66;100.00;97933.91;5193003;22;20645;-92
2022/11/05 03:00:03;;;;;;;6.90;6.03;;;;;;;11.69;100.00;97938.06;5192060;22;20604;-92
2022/11/05 03:02:06;;;;;;;7.37;5.73;;;;;;;11.67;100.00;97932.13;5218454;22;20604;-93
2022/11/05 03:04:13;;;;;;;9.07;6.77;;;;;;;11.69;100.00;97932.84;5192127;22;21052;-92
2022/11/05 03:06:31;;;;;;;9.50;6.00;;;;;;;11.69;98.57;97928.44;5191893;22;20575;-93
2022/11/05 03:08:44;;;;;;;8.57;6.37;;;;;;;11.66;99.17;97936.50;5192935;22;20583;-92
2022/11/05 03:10:50;;;;;;;7.03;6.23;;;;;;;11.68;98.93;97934.63;5192988;22;20564;-93
2022/11/05 03:13:02;;;;;;;8.57;6.50;;;;;;;11.68;99.88;97931.16;5191839;22;20575;-92
2022/11/05 03:15:15;;;;;;;8.43;6.50;;;;;;;11.68;100.00;97928.56;5190704;22;20580;-92
2022/11/05 03:17:29;;;;;;;9.37;7.43;;;;;;;11.68;100.00;97931.16;5192036;22;20603;-92
2022/11/05 03:19:39;;;;;;;8.60;6.40;;;;;;;11.69;99.71;97940.69;5190966;22;20610;-92
2022/11/05 03:21:46;;;;;;;10.17;6.53;;;;;;;11.68;100.00;97936.41;5191250;22;20576;-92
2022/11/05 03:23:53;;;;;;;9.43;7.13;;;;;;;11.69;99.81;97927.63;5192851;22;20571;-91
2022/11/05 03:26:01;;;;;;;10.10;7.00;;;;;;;11.67;99.94;97932.13;5190800;22;20616;-92
2022/11/05 03:28:06;;;;;;;8.77;7.83;;;;;;;11.67;99.64;97940.78;5191706;22;20583;-92
2022/11/05 03:30:12;;;;;;;7.80;6.87;;;;;;;11.67;99.66;97942.59;5191911;22;20666;-92
2022/11/05 03:32:16;;;;;;;8.80;6.77;;;;;;;11.68;100.00;97937.25;5216499;22;21183;-93
2022/11/05 03:34:23;;;;;;;8.50;7.03;;;;;;;11.68;100.00;97946.84;5192769;22;20610;-92
2022/11/05 03:36:31;;;;;;;7.90;6.93;;;;;;;11.66;99.27;97948.75;5191291;22;21225;-92
2022/11/05 03:38:35;;;;;;;8.83;6.90;;;;;;;11.66;99.24;97946.13;5191627;22;20609;-92
2022/11/05 03:40:39;;;;;;;8.77;6.90;;;;;;;11.65;100.00;97958.38;5191990;22;20584;-92
2022/11/05 03:42:45;;;;;;;9.47;6.97;;;;;;;11.67;100.00;97955.66;5190940;22;20586;-92
2022/11/05 03:44:51;;;;;;;8.80;7.00;;;;;;;11.67;100.00;97961.69;5218187;22;21095;-92
2022/11/05 03:46:58;;;;;;;9.40;7.57;;;;;;;11.67;100.00;97960.88;5191427;22;20575;-92
2022/11/05 03:49:03;;;;;;;9.53;7.47;;;;;;;11.68;99.76;97959.91;5190920;22;20664;-92
2022/11/05 03:51:08;;;;;;;9.27;7.40;;;;;;;11.68;100.00;97971.22;5192774;22;20572;-92
2022/11/05 03:53:16;;;;;;;9.10;7.47;;;;;;;11.68;100.00;97971.22;5193130;22;20572;-92
2022/11/05 03:55:23;;;;;;;8.73;7.83;;;;;;;11.68;99.31;97968.59;5191500;22;21112;-92
2022/11/05 03:57:29;;;;;;;11.33;8.70;;;;;;;11.70;100.00;97976.28;5216796;22;20610;-92
2022/11/05 03:59:33;;;;;;;11.00;8.83;;;;;;;11.70;100.00;97974.53;5217477;22;20616;-92
2022/11/05 04:01:37;;;;;;;9.50;8.50;;;;;;;11.68;100.00;97978.19;5190463;22;20606;-92
2022/11/05 04:03:40;;;;;;;10.57;8.23;;;;;;;11.66;100.00;97982.72;5219514;22;20694;-93
2022/11/05 04:13:22;;;;;;;9.40;8.40;;;;;;;11.66;100.00;97980.91;5190011;22;20617;-92
2022/11/05 04:15:24;;;;;;;11.03;8.40;;;;;;;11.60;100.00;97980.56;5190630;22;20618;-92
2022/11/05 04:17:26;;;;;;;10.10;8.33;;;;;;;11.58;99.48;97985.06;5190453;22;20995;-92
2022/11/05 04:24:11;;;;;;;11.13;8.63;;;;;;;11.51;100.00;97986.44;5219189;22;20574;-93
2022/11/05 04:26:16;;;;;;;11.70;8.17;;;;;;;11.49;100.00;97993.56;5219345;22;20616;-93
2022/11/05 04:30:17;;;;;;;10.67;8.33;;;;;;;11.46;100.00;97989.38;5221089;22;20609;-94
2022/11/05 04:30:43;;;;;;;11.97;9.13;;;;;;;11.45;100.00;97989.47;5222653;22;20672;-93
2022/11/05 04:33:00;;;;;;;12.63;9.20;;;;;;;11.40;100.00;97995.03;5196216;22;20567;-94
2022/11/05 04:35:03;;;;;;;15.53;8.90;;;;;;;11.35;100.00;97993.69;5196222;22;20620;-93
2022/11/05 04:37:06;;;;;;;11.80;9.70;;;;;;;11.34;100.00;97999.88;5199168;22;20634;-92
2022/11/05 04:39:12;;;;;;;12.33;8.43;;;;;;;11.34;100.00;98007.72;5224034;22;20620;-94
2022/11/05 04:41:17;;;;;;;11.40;9.23;;;;;;;11.37;100.00;98005.69;5198307;22;20650;-93
2022/11/05 04:43:20;;;;;;;12.40;8.93;;;;;;;11.39;100.00;98000.38;5221724;22;20584;-94
2022/11/05 04:45:25;;;;;;;13.53;9.80;;;;;;;11.42;100.00;98002.75;5193092;22;20587;-93
2022/11/05 04:47:28;;;;;;;11.17;9.27;;;;;;;11.43;100.00;98007.88;5190704;22;20580;-93
2022/11/05 04:49:31;;;;;;;13.70;9.20;;;;;;;11.45;100.00;98007.75;5216841;22;20673;-93
2022/11/05 04:51:34;;;;;;;11.47;9.40;;;;;;;11.47;100.00;98008.50;5191834;22;20579;-93
2022/11/05 04:53:37;;;;;;;13.20;10.63;;;;;;;11.47;100.00;98013.72;5190847;22;20629;-92
2022/11/05 04:55:40;;;;;;;12.07;9.70;;;;;;;11.46;100.00;98017.28;5218247;22;20570;-93
2022/11/05 04:57:47;;;;;;;12.67;10.30;;;;;;;11.49;100.00;98010.06;5217630;22;21200;-93
2022/11/05 04:59:50;;;;;;;14.57;11.07;;;;;;;11.48;100.00;98016.22;5192542;22;20674;-92
2022/11/05 05:01:53;;;;;;;15.73;12.50;;;;;;;11.49;100.00;98020.50;5191576;22;20581;-93
2022/11/05 05:03:56;;;;;;;15.90;11.30;;;;;;;11.49;100.00;98023.13;5190421;22;20698;-92
2022/11/05 05:06:00;;;;;;;16.73;13.17;;;;;;;11.51;100.00;98026.44;5218443;22;20689;-93
2022/11/05 05:08:09;;;;;;;16.67;13.27;;;;;;;11.50;100.00;98023.94;5192994;22;20621;-93
2022/11/05 05:10:12;;;;;;;16.50;13.67;;;;;;;11.50;100.00;98029.16;5191304;22;20587;-93
2022/11/05 05:12:15;;;;;;;18.60;13.50;;;;;;;11.50;100.00;98031.78;5217287;22;20618;-93
2022/11/05 05:14:20;;;;;;;16.00;12.97;;;;;;;11.50;100.00;98034.41;5217635;22;20565;-92
2022/11/05 05:16:24;;;;;;;15.80;13.30;;;;;;;11.53;100.00;98039.41;5191924;22;20611;-93
2022/11/05 05:18:27;;;;;;;17.00;13.97;;;;;;;11.53;100.00;98036.78;5218169;22;20634;-92
2022/11/05 05:22:52;;;;;;;19.13;15.10;;;;;;;11.54;100.00;98041.06;5218157;22;20936;-92
2022/11/05 05:24:56;;;;;;;18.50;14.37;;;;;;;11.56;100.00;98044.41;5219087;22;20605;-92
2022/11/05 05:27:00;;;;;;;18.17;13.87;;;;;;;11.57;100.00;98049.50;5192237;22;20584;-93
2022/11/05 05:29:03;;;;;;;17.43;13.90;;;;;;;11.56;100.00;98047.00;5193282;22;20578;-91
2022/11/05 05:31:08;;;;;;;16.70;13.50;;;;;;;11.55;100.00;98045.38;5217875;22;20637;-93
2022/11/05 05:33:11;;;;;;;16.90;13.53;;;;;;;11.55;100.00;98046.19;5191113;22;20695;-93
2022/11/05 05:35:14;;;;;;;16.87;13.33;;;;;;;11.55;100.00;98043.56;5192217;22;20586;-93
2022/11/05 05:37:18;;;;;;;20.83;13.90;;;;;;;11.54;100.00;98048.91;5217725;22;20606;-92
2022/11/05 05:39:21;;;;;;;17.13;13.30;;;;;;;11.54;100.00;98054.94;5193505;22;20580;-93
2022/11/05 05:41:24;;;;;;;17.00;13.20;;;;;;;11.55;100.00;98058.41;5190672;22;20572;-92
2022/11/05 05:43:29;;;;;;;18.20;13.77;;;;;;;11.54;100.00;98062.78;5218011;22;20602;-93
2022/11/05 05:45:32;;;;;;;17.27;13.60;;;;;;;11.54;100.00;98061.97;5190746;22;20625;-92
2022/11/05 05:47:36;;;;;;;17.60;13.33;;;;;;;11.54;100.00;98065.41;5191590;22;20567;-93
2022/11/05 05:49:40;;;;;;;18.30;12.90;;;;;;;11.55;100.00;98066.25;5218130;22;20562;-92
2022/11/05 05:51:43;;;;;;;18.33;14.03;;;;;;;11.55;100.00;98066.25;5218078;22;21102;-92
2022/11/05 05:53:46;;;;;;;19.73;14.40;;;;;;;11.54;100.00;98067.19;5217749;22;21100;-93
2022/11/05 05:55:49;;;;;;;17.23;13.40;;;;;;;11.56;100.00;98073.97;5192414;22;20634;-92
2022/11/05 05:57:52;;;;;;;19.60;13.77;;;;;;;11.56;100.00;98068.75;5192924;22;20610;-93
2022/11/05 05:59:55;;;;;;;20.30;14.23;;;;;;;11.57;100.00;98074.81;5218079;22;20669;-94
2022/11/05 06:01:59;;;;;;;17.37;14.27;;;;;;;11.55;100.00;98077.53;5217088;22;21085;-93
2022/11/05 06:04:03;;;;;;;21.23;13.90;;;;;;;11.55;100.00;98069.69;5191892;22;20602;-92
2022/11/05 06:06:08;;;;;;;19.03;14.40;;;;;;;11.55;100.00;98077.53;5216339;22;20565;-93
2022/11/05 06:08:12;;;;;;;20.70;14.70;;;;;;;11.55;100.00;98074.91;5192569;22;20652;-94
2022/11/05 06:10:15;;;;;;;19.50;15.17;;;;;;;11.54;100.00;98080.25;5218517;22;20603;-94
2022/11/05 06:12:18;;;;;;;18.43;14.20;;;;;;;11.55;100.00;98087.16;5217865;22;20563;-92
2022/11/05 06:14:21;;;;;;;20.27;15.03;;;;;;;11.55;100.00;98084.53;5219363;22;20645;-93
2022/11/05 06:16:24;;;;;;;18.77;14.13;;;;;;;11.51;100.00;98085.69;5192128;22;21180;-92
2022/11/05 06:18:27;;;;;;;17.17;13.27;;;;;;;11.50;99.46;98090.09;5191585;22;20610;-93
2022/11/05 06:20:31;;;;;;;19.13;13.97;;;;;;;11.49;99.73;98092.81;5192280;22;20583;-92
2022/11/05 06:22:35;;;;;;;17.53;13.57;;;;;;;11.48;100.00;98097.19;5190760;22;20670;-93
2022/11/05 06:24:38;;;;;;;16.90;13.60;;;;;;;11.50;99.75;98097.06;5218095;22;20579;-92
2022/11/05 06:26:43;;;;;;;18.83;13.77;;;;;;;11.52;100.00;98106.47;5190185;22;20586;-93
2022/11/05 06:28:46;;;;;;;21.00;14.30;;;;;;;11.51;100.00;98110.03;5216615;22;20562;-93
2022/11/05 06:30:50;;;;;;;19.17;13.90;;;;;;;11.54;100.00;98116.81;5189482;22;20633;-92
2022/11/05 06:32:53;;;;;;;18.67;14.80;;;;;;;11.55;100.00;98126.31;5217773;22;20574;-93
2022/11/05 06:34:56;;;;;;;19.90;14.63;;;;;;;11.56;100.00;98127.97;5191348;22;20678;-91
2022/11/05 06:37:01;;;;;;;19.90;14.50;;;;;;;11.57;100.00;98127.88;5191950;22;20579;-92
2022/11/05 06:39:04;;;;;;;19.33;14.73;;;;;;;11.59;100.00;98130.38;5193011;22;20607;-92
2022/11/05 06:41:07;;;;;;;23.80;14.87;;;;;;;11.61;100.00;98137.16;5193029;22;20564;-91
2022/11/05 06:43:12;;;;;;;20.97;15.37;;;;;;;11.64;100.00;98133.50;5217364;22;20583;-92
2022/11/05 06:45:16;;;;;;;20.20;14.60;;;;;;;11.65;100.00;98140.38;5190747;22;20567;-92
2022/11/05 06:47:19;;;;;;;20.10;14.17;;;;;;;11.66;100.00;98142.06;5192617;22;20583;-92
2022/11/05 06:49:23;;;;;;;20.67;14.67;;;;;;;11.68;100.00;98141.00;5192697;22;20674;-92
2022/11/05 06:51:27;;;;;;;20.30;14.03;;;;;;;11.71;100.00;98145.16;5190481;22;21085;-92
2022/11/05 06:53:31;;;;;;;19.90;15.27;;;;;;;11.71;100.00;98147.78;5217434;22;20676;-92
2022/11/05 06:55:34;;;;;;;22.40;16.93;;;;;;;11.73;99.70;98153.72;5193090;22;21122;-92
2022/11/05 06:57:38;;;;;;;20.77;15.37;;;;;;;11.73;99.32;98153.72;5192373;22;20646;-92
2022/11/05 06:59:41;;;;;;;20.50;15.80;;;;;;;11.74;99.24;98158.84;5192825;22;20584;-92
2022/11/05 07:01:44;;;;;;;19.27;14.43;;;;;;;11.73;99.21;98159.81;5192140;22;20646;-92
2022/11/05 07:03:48;;;;;;;21.57;14.83;;;;;;;11.74;99.86;98171.06;5217861;22;20823;-92
2022/11/05 07:05:52;;;;;;;22.23;15.57;;;;;;;11.76;99.88;98172.66;5192243;22;20611;-93
2022/11/05 07:07:56;;;;;;;21.47;15.27;;;;;;;11.76;100.00;98170.84;5193609;22;20586;-93
2022/11/05 07:10:01;;;;;;;20.97;15.20;;;;;;;11.77;99.42;98184.75;5191358;22;20584;-93
2022/11/05 07:12:04;;;;;;;19.80;14.97;;;;;;;11.78;98.66;98184.63;5217167;22;20582;-92
2022/11/05 07:14:07;;;;;;;20.50;15.37;;;;;;;11.79;99.69;98185.50;5191113;22;20615;-92
2022/11/05 07:16:11;;;;;;;20.13;14.60;;;;;;;11.81;99.19;98192.25;5192214;22;20663;-93
2022/11/05 07:18:14;;;;;;;20.50;14.57;;;;;;;11.81;99.67;98200.09;5192544;22;20646;-93
2022/11/05 07:20:17;;;;;;;21.00;14.77;;;;;;;11.81;98.30;98197.47;5218309;22;20936;-93
2022/11/05 07:22:20;;;;;;;21.73;15.30;;;;;;;11.81;99.66;98202.72;5217284;22;21125;-93
2022/11/05 07:24:23;;;;;;;19.80;14.17;;;;;;;11.82;98.05;98201.78;5192181;22;20622;-93
2022/11/05 07:26:28;;;;;;;19.60;13.63;;;;;;;11.83;98.94;98208.69;5216972;22;20555;-93
2022/11/05 07:28:36;;;;;;;20.60;14.33;;;;;;;11.86;99.21;98218.91;5191112;22;21135;-93
2022/11/05 07:30:39;;;;;;;19.43;14.17;;;;;;;11.89;99.42;98221.31;5190678;22;20629;-93
2022/11/05 07:32:42;;;;;;;22.90;14.10;;;;;;;11.90;99.58;98220.34;5191000;22;20651;-93
2022/11/05 07:34:45;;;;;;;18.80;14.00;;;;;;;11.94;100.00;98223.59;5191038;22;20571;-93
2022/11/05 07:36:48;;;;;;;19.87;14.03;;;;;;;11.94;98.41;98223.59;5190777;22;20970;-93
2022/11/05 07:38:51;;;;;;;22.37;14.83;;;;;;;11.96;99.09;98230.38;5216850;22;20799;-93
2022/11/05 07:41:03;;;;;;;20.40;13.67;;;;;;;11.94;98.95;98234.88;5216573;22;20542;-94
2022/11/05 07:43:07;;;;;;;19.47;14.10;;;;;;;11.97;100.00;98242.50;5192221;22;20599;-93
2022/11/05 07:45:12;;;;;;;19.27;13.30;;;;;;;11.96;99.59;98240.81;5191727;22;20629;-93
2022/11/05 07:47:15;;;;;;;15.67;12.23;;;;;;;11.96;99.45;98242.59;5219602;22;20885;-93
2022/11/05 07:49:18;;;;;;;16.93;13.27;;;;;;;11.97;99.77;98247.72;5217508;22;20574;-93
2022/11/05 07:51:22;;;;;;;18.80;13.63;;;;;;;11.99;98.62;98243.22;5191314;22;20574;-93
2022/11/05 07:53:25;;;;;;;16.60;13.00;;;;;;;12.00;99.50;98242.28;5218234;22;20587;-93
2022/11/05 07:55:28;;;;;;;18.43;12.97;;;;;;;12.04;99.46;98246.34;5189387;22;20611;-93
2022/11/05 07:57:31;;;;;;;18.50;14.20;;;;;;;12.09;98.73;98249.47;5218045;22;20633;-93
2022/11/05 07:59:36;;;;;;;18.90;13.63;;;;;;;12.13;98.13;98250.91;5190945;22;21513;-94
2022/11/05 08:01:39;;;;;;;18.73;13.80;;;;;;;12.19;97.73;98247.84;5191428;22;20957;-93
2022/11/05 08:03:42;;;;;;;19.33;13.50;;;;;;;12.23;99.06;98244.06;5191842;22;21250;-93
2022/11/05 08:05:46;;;;;;;17.47;12.73;;;;;;;12.26;98.06;98256.94;5215842;22;20684;-93
2022/11/05 08:07:50;;;;;;;18.97;13.80;;;;;;;12.29;97.83;98243.63;5190394;22;20667;-93
2022/11/05 08:09:53;;;;;;;18.10;12.77;;;;;;;12.30;97.78;98250.53;5190388;22;20604;-91
2022/11/05 08:11:56;;;;;;;17.63;13.93;;;;;;;12.29;97.45;98261.94;5189507;22;20580;-91
2022/11/05 08:14:05;;;;;;;17.23;13.27;;;;;;;12.29;98.64;98264.56;5217628;22;20618;-91
2022/11/05 08:16:09;;;;;;;24.40;14.30;;;;;;;12.28;97.44;98273.31;5217124;22;20999;-91
2022/11/05 08:18:14;;;;;;;18.30;13.57;;;;;;;12.23;97.18;98265.00;5217043;22;20640;-91
2022/11/05 08:20:17;;;;;;;18.50;13.17;;;;;;;12.22;96.85;98272.94;5216604;22;20932;-91
2022/11/05 08:22:20;;;;;;;22.87;16.60;;;;;;;12.21;98.03;98281.72;5216674;22;20669;-91
2022/11/05 08:24:23;;;;;;;19.73;14.07;;;;;;;12.21;96.90;98277.34;5190317;22;20579;-90
2022/11/05 08:26:27;;;;;;;20.60;15.67;;;;;;;12.20;96.80;98280.06;5216098;22;20673;-90
2022/11/05 08:28:30;;;;;;;17.20;13.37;;;;;;;12.18;97.97;98282.81;5191059;22;20580;-91
2022/11/05 08:30:34;;;;;;;18.20;14.00;;;;;;;12.18;96.84;98280.19;5191125;22;20583;-90
2022/11/05 08:32:38;;;;;;;16.07;13.30;;;;;;;12.20;98.24;98280.06;5216982;22;20605;-90
2022/11/05 08:34:41;;;;;;;17.40;13.00;;;;;;;12.21;98.28;98282.56;5216204;22;20566;-90
2022/11/05 08:36:45;;;;;;;19.70;14.40;;;;;;;12.21;98.30;98277.34;5191292;22;20591;-90
2022/11/05 08:38:48;;;;;;;17.30;12.63;;;;;;;12.27;97.81;98284.75;5192171;22;20571;-90
2022/11/05 08:40:56;;;;;;;15.90;12.27;;;;;;;12.31;96.84;98291.41;5191432;22;20618;-90
2022/11/05 08:42:59;;;;;;;18.27;13.97;;;;;;;12.34;96.74;98296.44;5216606;22;20596;-89
2022/11/05 08:45:02;;;;;;;20.97;14.00;;;;;;;12.36;97.40;98292.75;5190178;22;20622;-91
2022/11/05 08:47:06;;;;;;;41.63;20.63;;;;;;;12.40;97.21;98293.38;5217130;22;20733;-91
2022/11/05 08:49:11;;;;;;;40.20;22.70;;;;;;;12.40;98.18;98298.59;5191343;22;20572;-92
2022/11/05 08:51:14;;;;;;;23.13;16.37;;;;;;;12.43;98.48;98294.00;5216364;22;20579;-89
2022/11/05 08:53:18;;;;;;;19.73;13.97;;;;;;;12.40;97.69;98291.59;5189312;22;20591;-90
2022/11/05 08:55:21;;;;;;;24.33;17.70;;;;;;;12.37;96.92;98294.44;5188100;22;21126;-90
2022/11/05 08:57:24;;;;;;;17.00;13.63;;;;;;;12.36;95.85;98297.16;5216039;22;20958;-90
2022/11/05 08:59:28;;;;;;;19.33;13.90;;;;;;;12.35;96.74;98304.16;5216521;22;20615;-90
2022/11/05 09:01:32;;;;;;;21.10;14.67;;;;;;;12.36;96.24;98303.22;5216492;22;20571;-90
2022/11/05 09:03:36;;;;;;;22.27;17.10;;;;;;;12.35;96.47;98304.16;5216411;22;20945;-90
2022/11/05 09:05:41;;;;;;;20.53;14.37;;;;;;;12.33;96.05;98305.25;5214534;22;20592;-92
2022/11/05 09:07:45;;;;;;;19.47;13.90;;;;;;;12.33;96.63;98313.91;5190632;22;20577;-92
2022/11/05 09:09:48;;;;;;;19.00;13.40;;;;;;;12.35;96.29;98309.41;5190266;22;20573;-92
2022/11/05 09:11:51;;;;;;;18.40;13.40;;;;;;;12.33;97.14;98313.09;5189560;22;20570;-92
2022/11/05 09:14:14;;;;;;;17.43;12.70;;;;;;;12.33;97.30;98313.91;5189486;22;20675;-90
2022/11/05 09:16:19;;;;;;;17.40;12.30;;;;;;;12.34;96.35;98312.97;5190305;22;20567;-94
2022/11/05 09:18:22;;;;;;;18.93;13.30;;;;;;;12.35;97.23;98308.56;5216535;22;20583;-93
2022/11/05 09:20:29;;;;;;;19.20;13.97;;;;;;;12.36;97.41;98315.47;5231378;22;20636;-88
2022/11/05 09:22:35;;;;;;;20.70;14.73;;;;;;;12.35;97.78;98319.84;5221726;22;20631;-89
2022/11/05 09:24:45;;;;;;;19.73;14.90;;;;;;;12.33;97.71;98321.75;5222902;22;20567;-88
2022/11/05 09:26:52;;;;;;;15.70;12.63;;;;;;;12.33;96.53;98324.38;5221672;22;20662;-89
2022/11/05 09:28:55;;;;;;;17.37;13.30;;;;;;;12.32;95.66;98330.53;5188577;22;21192;-89
2022/11/05 09:30:59;;;;;;;17.97;13.10;;;;;;;12.30;96.68;98335.06;5188231;22;20902;-90
2022/11/05 09:33:03;;;;;;;17.53;13.23;;;;;;;12.30;95.70;98332.44;5186849;22;21412;-90
2022/11/05 09:35:07;;;;;;;17.20;12.93;;;;;;;12.30;97.38;98332.44;5194374;22;21162;-90
2022/11/05 09:37:11;;;;;;;19.90;14.00;;;;;;;12.32;97.16;98327.09;5190018;22;20630;-90
2022/11/05 09:39:15;;;;;;;19.13;14.20;;;;;;;12.36;96.86;98334.63;5214331;22;20567;-89
2022/11/05 09:41:25;;;;;;;20.83;14.63;;;;;;;12.38;96.59;98337.94;5213338;22;20572;-88
2022/11/05 09:43:34;;;;;;;21.67;13.90;;;;;;;12.41;95.96;98342.97;5187951;22;20672;-88
2022/11/05 09:45:37;;;;;;;21.27;14.73;;;;;;;12.41;96.15;98335.09;5214279;22;20590;-88
2022/11/05 09:47:42;;;;;;;19.97;13.87;;;;;;;12.41;97.39;98334.28;5189413;22;20603;-88
2022/11/05 09:49:48;;;;;;;20.77;14.23;;;;;;;12.37;96.72;98330.22;5213413;22;20562;-89
2022/11/05 09:51:53;;;;;;;17.80;13.00;;;;;;;12.34;96.88;98336.50;5188331;22;20957;-87
2022/11/05 09:53:56;;;;;;;16.23;13.00;;;;;;;12.35;95.11;98339.97;5190251;22;20572;-90
2022/11/05 09:56:01;;;;;;;19.30;13.73;;;;;;;12.38;95.40;98342.34;5214024;22;20582;-86
2022/11/05 09:58:09;;;;;;;19.93;13.90;;;;;;;12.40;96.75;98346.53;5189322;22;20567;-88
2022/11/05 10:00:15;;;;;;;19.20;14.40;;;;;;;12.45;95.16;98354.06;5215652;22;20616;-87
2022/11/05 10:02:20;;;;;;;16.00;12.13;;;;;;;12.47;95.60;98341.69;5214171;22;20577;-89
2022/11/05 10:04:25;;;;;;;18.90;12.97;;;;;;;12.53;96.43;98347.31;5189555;22;20964;-89
2022/11/05 10:06:29;;;;;;;17.80;13.40;;;;;;;12.56;96.13;98351.50;5191343;22;20612;-91
2022/11/05 10:08:35;;;;;;;15.17;11.70;;;;;;;12.59;94.25;98359.13;5216457;22;20599;-92
2022/11/05 10:10:42;;;;;;;18.90;12.50;;;;;;;12.62;95.59;98364.16;5218718;22;21152;-91
2022/11/05 10:12:50;;;;;;;17.33;12.37;;;;;;;12.63;94.70;98360.56;5189868;22;20630;-92
2022/11/05 10:15:10;;;;;;;15.33;12.20;;;;;;;12.62;94.53;98366.75;5191779;22;20637;-90
2022/11/05 10:17:16;;;;;;;18.10;12.27;;;;;;;12.63;94.19;98364.03;5192865;22;21571;-91
2022/11/05 10:19:23;;;;;;;14.90;11.80;;;;;;;12.65;95.37;98367.38;5192802;22;20585;-90